Historique des stations

Station météo de Romilly-sur-Aigre

Altitude de la station : 111 m







Données météorologiques pour le 02/12/2021
Date
Heure
Températures Humidité Point de rosée Vitesse
du vent
Direction Rafales Windchill Pression Pluviométrie
Cumul
Date
Heure
Températures Humidité Point de rosée Vitesse
du vent
Direction Rafales Windchill Pression Pluviométrie
Cumul
02/12/2021 17:563.6 °C88 %1.8 °C3 km/hONO15 km/h1.81012 hPa0.0 mm
02/12/2021 17:463.4 °C88 %1.6 °C6 km/hONO13 km/h1.61012 hPa0.0 mm
02/12/2021 17:413.4 °C88 %1.6 °C8 km/hONO13 km/h1.61012 hPa0.0 mm
02/12/2021 17:313.4 °C87 %1.4 °C5 km/hONO11 km/h1.41012 hPa0.0 mm
02/12/2021 17:263.4 °C87 %1.5 °C5 km/hONO11 km/h1.51012 hPa0.0 mm
02/12/2021 17:163.7 °C86 %1.5 °C5 km/hONO10 km/h1.51012 hPa0.0 mm
02/12/2021 17:113.8 °C86 %1.7 °C5 km/hONO11 km/h1.71012 hPa0.0 mm
02/12/2021 17:014.1 °C85 %1.8 °C6 km/hONO15 km/h1.81011 hPa0.0 mm
02/12/2021 16:564.2 °C84 %1.8 °C5 km/hO15 km/h1.81011 hPa0.0 mm
02/12/2021 16:464.5 °C84 %2.0 °C10 km/hNO18 km/h2.01011 hPa0.0 mm
02/12/2021 16:414.7 °C83 %2.0 °C6 km/hO21 km/h2.01011 hPa0.0 mm
02/12/2021 16:315.0 °C82 %2.2 °C11 km/hONO23 km/h2.21011 hPa0.0 mm
02/12/2021 16:265.2 °C82 %2.4 °C6 km/hONO23 km/h2.41011 hPa0.0 mm
02/12/2021 16:165.6 °C80 %2.4 °C15 km/hNO29 km/h2.41011 hPa0.0 mm
02/12/2021 16:115.7 °C79 %2.3 °C19 km/hNW29 km/h2.31011 hPa0.0 mm
02/12/2021 16:015.8 °C80 %2.6 °C13 km/hONO27 km/h2.61011 hPa0.0 mm
02/12/2021 15:565.8 °C80 %2.6 °C13 km/hONO27 km/h2.61011 hPa0.0 mm
02/12/2021 15:465.8 °C78 %2.2 °C15 km/hONO24 km/h2.21011 hPa0.0 mm
02/12/2021 15:415.8 °C79 %2.4 °C18 km/hONO23 km/h2.41011 hPa0.0 mm
02/12/2021 15:315.9 °C79 %2.5 °C16 km/hNO26 km/h2.51010 hPa0.0 mm
02/12/2021 15:265.9 °C78 %2.4 °C16 km/hONO29 km/h2.41010 hPa0.0 mm
02/12/2021 15:165.9 °C79 %2.6 °C15 km/hNO24 km/h2.61010 hPa0.0 mm
02/12/2021 15:116.0 °C78 %2.5 °C15 km/hONO23 km/h2.51010 hPa0.0 mm
02/12/2021 15:016.0 °C80 %2.8 °C11 km/hNO24 km/h2.81010 hPa0.0 mm
02/12/2021 14:565.8 °C79 %2.5 °C13 km/hNW24 km/h2.51010 hPa0.0 mm
02/12/2021 14:465.9 °C82 %3.0 °C13 km/hNO23 km/h3.01010 hPa0.0 mm
02/12/2021 14:416.1 °C80 %2.9 °C23 km/hNW23 km/h2.91010 hPa0.0 mm
02/12/2021 14:315.9 °C83 %3.3 °C13 km/hONO24 km/h3.31010 hPa0.0 mm
02/12/2021 14:265.8 °C81 %2.8 °C11 km/hONO24 km/h2.81010 hPa0.0 mm
02/12/2021 14:165.6 °C81 %2.6 °C15 km/hNO27 km/h2.61010 hPa0.0 mm
02/12/2021 14:115.6 °C81 %2.6 °C21 km/hO24 km/h2.61010 hPa0.0 mm
02/12/2021 14:015.8 °C81 %2.8 °C15 km/hONO24 km/h2.81010 hPa0.0 mm
02/12/2021 13:565.7 °C82 %2.9 °C16 km/hNW24 km/h2.91010 hPa0.0 mm
02/12/2021 13:465.7 °C84 %3.2 °C11 km/hONO19 km/h3.21010 hPa0.0 mm
02/12/2021 13:415.8 °C85 %3.5 °C10 km/hO18 km/h3.51010 hPa0.0 mm
02/12/2021 13:315.8 °C86 %3.7 °C11 km/hNO19 km/h3.71010 hPa0.0 mm
02/12/2021 13:265.4 °C86 %3.3 °C16 km/hNW19 km/h3.31010 hPa0.0 mm
02/12/2021 13:165.1 °C84 %2.6 °C13 km/hNO24 km/h2.61010 hPa0.0 mm
02/12/2021 13:115.2 °C85 %2.9 °C10 km/hNW24 km/h2.91010 hPa0.0 mm
02/12/2021 13:015.3 °C85 %3.0 °C15 km/hNO26 km/h3.01010 hPa0.0 mm
02/12/2021 12:565.2 °C86 %3.1 °C16 km/hNW26 km/h3.11010 hPa0.0 mm
02/12/2021 12:465.2 °C86 %3.1 °C11 km/hONO19 km/h3.11010 hPa0.0 mm
02/12/2021 12:415.3 °C87 %3.3 °C5 km/hONO19 km/h3.31011 hPa0.0 mm
02/12/2021 12:315.3 °C87 %3.3 °C11 km/hNO21 km/h3.31011 hPa0.0 mm
02/12/2021 12:265.2 °C86 %3.1 °C6 km/hNW21 km/h3.11011 hPa0.0 mm
02/12/2021 12:165.2 °C87 %3.2 °C11 km/hNO23 km/h3.21011 hPa0.0 mm
02/12/2021 12:115.2 °C87 %3.2 °C19 km/hNNO23 km/h3.21011 hPa0.0 mm
02/12/2021 12:014.9 °C88 %3.1 °C8 km/hNO16 km/h3.11011 hPa0.0 mm
02/12/2021 11:564.8 °C88 %3.0 °C6 km/hNW16 km/h3.01011 hPa0.0 mm
02/12/2021 11:464.7 °C88 %2.9 °C6 km/hNO15 km/h2.91011 hPa0.0 mm
02/12/2021 11:414.7 °C89 %3.1 °C5 km/hNW18 km/h3.11011 hPa0.0 mm
02/12/2021 11:314.6 °C89 %2.9 °C10 km/hNO18 km/h2.91011 hPa0.0 mm
02/12/2021 11:264.5 °C88 %2.7 °C10 km/hNW19 km/h2.71011 hPa0.0 mm
02/12/2021 11:164.4 °C89 %2.8 °C10 km/hNO19 km/h2.81011 hPa0.0 mm
02/12/2021 11:114.3 °C89 %2.7 °C15 km/hNW19 km/h2.71010 hPa0.0 mm
02/12/2021 11:014.1 °C89 %2.5 °C10 km/hNO21 km/h2.51010 hPa0.0 mm
02/12/2021 10:564.1 °C89 %2.4 °C5 km/hNW21 km/h2.41010 hPa0.0 mm
02/12/2021 10:463.9 °C90 %2.4 °C8 km/hNO18 km/h2.41010 hPa0.0 mm
02/12/2021 10:413.7 °C90 %2.2 °C5 km/hNNO15 km/h2.21010 hPa0.0 mm
02/12/2021 10:313.5 °C90 %2.0 °C8 km/hNO18 km/h2.01010 hPa0.0 mm
02/12/2021 10:263.4 °C90 %1.9 °C8 km/hNW21 km/h1.91010 hPa0.0 mm
02/12/2021 10:163.2 °C91 %1.9 °C10 km/hNO21 km/h1.91010 hPa0.0 mm
02/12/2021 10:113.1 °C91 %1.8 °C8 km/hNW16 km/h1.81010 hPa0.0 mm
02/12/2021 10:012.8 °C92 %1.7 °C8 km/hNO16 km/h1.71010 hPa0.0 mm
02/12/2021 09:562.6 °C92 %1.4 °C6 km/hONO13 km/h1.41010 hPa0.0 mm
02/12/2021 09:462.2 °C92 %1.0 °C8 km/hNO13 km/h1.01009 hPa0.0 mm
02/12/2021 09:412.1 °C92 %0.9 °C8 km/hNW13 km/h0.91009 hPa0.0 mm
02/12/2021 09:311.8 °C92 %0.7 °C6 km/hNO13 km/h0.71009 hPa0.0 mm
02/12/2021 09:261.8 °C92 %0.6 °C3 km/hONO13 km/h0.61009 hPa0.0 mm
02/12/2021 09:161.8 °C92 %0.6 °C6 km/hNO15 km/h0.61009 hPa0.0 mm
02/12/2021 09:111.8 °C92 %0.6 °C8 km/hNW15 km/h0.61009 hPa0.0 mm
02/12/2021 09:011.6 °C92 %0.5 °C8 km/hNO16 km/h0.51009 hPa0.0 mm
02/12/2021 08:561.5 °C92 %0.3 °C5 km/hNW16 km/h0.31009 hPa1.2 mm
02/12/2021 08:461.4 °C92 %0.3 °C5 km/hNO11 km/h0.31009 hPa1.2 mm
02/12/2021 08:411.5 °C92 %0.3 °C2 km/hNW15 km/h0.31009 hPa1.2 mm
02/12/2021 08:311.6 °C92 %0.5 °C5 km/hNO10 km/h0.51009 hPa1.2 mm
02/12/2021 08:261.7 °C92 %0.6 °C3 km/hNW13 km/h0.61008 hPa1.2 mm
02/12/2021 08:161.8 °C91 %0.5 °C6 km/hNO15 km/h0.51008 hPa1.2 mm
02/12/2021 08:111.9 °C91 %0.6 °C5 km/hNNO15 km/h0.61008 hPa1.2 mm
02/12/2021 08:012.1 °C91 %0.7 °C6 km/hNO15 km/h0.71008 hPa1.2 mm
02/12/2021 07:562.1 °C91 %0.8 °C8 km/hONO15 km/h0.81008 hPa1.2 mm
02/12/2021 07:462.2 °C91 %0.8 °C6 km/hNO13 km/h0.81008 hPa1.2 mm
02/12/2021 07:412.2 °C91 %0.8 °C6 km/hNW15 km/h0.81008 hPa1.2 mm
02/12/2021 07:312.3 °C91 %1.0 °C6 km/hNO16 km/h1.01008 hPa1.2 mm
02/12/2021 07:262.4 °C91 %1.1 °C13 km/hNW16 km/h1.11008 hPa1.2 mm
02/12/2021 07:162.7 °C91 %1.3 °C6 km/hNNO15 km/h1.31008 hPa1.2 mm
02/12/2021 07:112.8 °C91 %1.5 °C13 km/hNW16 km/h1.51007 hPa1.2 mm
02/12/2021 07:013.1 °C91 %1.8 °C8 km/hNNO19 km/h1.81007 hPa1.2 mm
02/12/2021 06:563.2 °C91 %1.8 °C8 km/hN19 km/h1.81007 hPa1.2 mm
02/12/2021 06:463.3 °C91 %1.9 °C10 km/hNNO24 km/h1.91007 hPa1.2 mm
02/12/2021 06:413.3 °C91 %2.0 °C8 km/hNNO24 km/h2.01007 hPa1.2 mm
02/12/2021 06:313.3 °C91 %2.0 °C10 km/hNNO24 km/h2.01007 hPa1.2 mm
02/12/2021 06:263.5 °C91 %2.2 °C13 km/hNW21 km/h2.21007 hPa1.2 mm
02/12/2021 06:163.8 °C91 %2.5 °C8 km/hNNO23 km/h2.51007 hPa1.2 mm
02/12/2021 06:113.9 °C91 %2.6 °C3 km/hNW23 km/h2.61007 hPa1.2 mm
02/12/2021 06:014.2 °C92 %3.0 °C6 km/hNNO21 km/h3.01006 hPa1.2 mm
02/12/2021 05:564.3 °C92 %3.1 °C13 km/hNNE19 km/h3.11006 hPa1.2 mm
02/12/2021 05:464.6 °C94 %3.7 °C10 km/hNNO24 km/h3.71006 hPa1.2 mm
02/12/2021 05:414.7 °C94 %3.8 °C6 km/hNNO24 km/h3.81006 hPa1.2 mm
02/12/2021 05:314.7 °C94 %3.8 °C6 km/hNNO15 km/h3.81006 hPa1.0 mm
02/12/2021 05:264.7 °C94 %3.8 °C5 km/hNNO15 km/h3.81006 hPa1.0 mm
02/12/2021 05:164.6 °C94 %3.7 °C5 km/hNNO13 km/h3.71006 hPa0.6 mm
02/12/2021 05:114.4 °C94 %3.6 °C5 km/hNW13 km/h3.61006 hPa0.6 mm
02/12/2021 05:014.4 °C94 %3.5 °C5 km/hNNO8 km/h3.51006 hPa0.6 mm
02/12/2021 04:564.4 °C94 %3.5 °C2 km/hNW13 km/h3.51006 hPa0.6 mm
02/12/2021 04:464.4 °C94 %3.6 °C6 km/hNNO15 km/h3.61006 hPa0.6 mm
02/12/2021 04:414.4 °C94 %3.6 °C8 km/hNW16 km/h3.61006 hPa0.6 mm
02/12/2021 04:314.3 °C94 %3.5 °C6 km/hNNO15 km/h3.51006 hPa0.6 mm
02/12/2021 04:264.3 °C94 %3.4 °C5 km/hNNO13 km/h3.41005 hPa0.6 mm
02/12/2021 04:164.3 °C94 %3.4 °C8 km/hNO16 km/h3.41005 hPa0.6 mm
02/12/2021 04:114.2 °C94 %3.3 °C13 km/hNW16 km/h3.31005 hPa0.6 mm
02/12/2021 04:014.2 °C94 %3.3 °C6 km/hNO15 km/h3.31005 hPa0.6 mm
02/12/2021 03:564.2 °C94 %3.3 °C6 km/hNW16 km/h3.31005 hPa0.6 mm
02/12/2021 03:463.9 °C94 %3.1 °C8 km/hNO18 km/h3.11005 hPa0.6 mm
02/12/2021 03:413.9 °C94 %3.1 °C6 km/hNW15 km/h3.11005 hPa0.6 mm
02/12/2021 03:313.9 °C94 %3.1 °C8 km/hNO16 km/h3.11005 hPa0.6 mm
02/12/2021 03:263.9 °C94 %3.1 °C8 km/hNW13 km/h3.11005 hPa0.6 mm
02/12/2021 03:164.2 °C94 %3.3 °C6 km/hNO13 km/h3.31005 hPa0.6 mm
02/12/2021 03:114.2 °C94 %3.3 °C6 km/hNNO13 km/h3.31005 hPa0.6 mm
02/12/2021 03:014.2 °C95 %3.4 °C6 km/hONO15 km/h3.41005 hPa0.6 mm
02/12/2021 02:564.1 °C95 %3.3 °C6 km/hONO15 km/h3.31004 hPa0.6 mm
02/12/2021 02:463.9 °C95 %3.2 °C6 km/hNO15 km/h3.21004 hPa0.6 mm
02/12/2021 02:413.8 °C95 %3.1 °C8 km/hNW13 km/h3.11005 hPa0.6 mm
02/12/2021 02:313.6 °C96 %3.0 °C6 km/hONO13 km/h3.01004 hPa0.6 mm
02/12/2021 02:263.4 °C96 %2.8 °C6 km/hONO11 km/h2.81004 hPa0.6 mm
02/12/2021 02:162.8 °C96 %2.2 °C6 km/hO13 km/h2.21004 hPa0.6 mm
02/12/2021 02:112.6 °C96 %2.0 °C6 km/hONO13 km/h2.01004 hPa0.6 mm
02/12/2021 02:012.2 °C96 %1.6 °C6 km/hONO13 km/h1.61004 hPa0.6 mm
02/12/2021 01:561.9 °C95 %1.2 °C5 km/hONO11 km/h1.21004 hPa0.6 mm
02/12/2021 01:461.7 °C94 %0.8 °C6 km/hO11 km/h0.81004 hPa0.6 mm
02/12/2021 01:411.7 °C94 %0.8 °C3 km/hO10 km/h0.81004 hPa0.6 mm
02/12/2021 01:361.8 °C94 %0.9 °C5 km/hO10 km/h0.91004 hPa0.6 mm
02/12/2021 01:262.1 °C94 %1.2 °C3 km/hOSO6 km/h1.21004 hPa0.6 mm
02/12/2021 01:212.1 °C94 %1.2 °C-OSO3 km/h1.21004 hPa0.6 mm
02/12/2021 01:112.3 °C94 %1.4 °C-OSO5 km/h1.41004 hPa0.6 mm
02/12/2021 01:062.4 °C94 %1.6 °C3 km/hOSO5 km/h1.61004 hPa0.6 mm
02/12/2021 01:012.4 °C94 %1.6 °C3 km/hOSO11 km/h1.61004 hPa0.6 mm
02/12/2021 00:512.5 °C94 %1.6 °C5 km/hOSO11 km/h1.61004 hPa0.6 mm
02/12/2021 00:412.6 °C94 %1.7 °C5 km/hOSO13 km/h1.71004 hPa0.6 mm
02/12/2021 00:312.7 °C94 %1.9 °C5 km/hO8 km/h1.91004 hPa0.6 mm
02/12/2021 00:262.7 °C94 %1.9 °C3 km/hO11 km/h1.91004 hPa0.6 mm
02/12/2021 00:162.8 °C93 %1.8 °C6 km/hO11 km/h1.81004 hPa0.6 mm
02/12/2021 00:112.8 °C93 %1.8 °C5 km/hO11 km/h1.81004 hPa0.6 mm
02/12/2021 00:013.1 °C93 %2.1 °C5 km/hO11 km/h2.11004 hPa0.6 mm


Minima :

Température : 1.4 °C
Humidité : 78 %
Point de rosée : 0.3 °C
Vent moyen : 2 km/h
Windchill : 0.3
Pression atm. : 1004 hPa
Maxima :

Température : 6.1 °C
Humidité : 96 %
Point de rosée : 3.8 °C
Vent moyen : 23 km/h
Windchill : 3.8
Pression atm. : 1012 hPa
Rafales max : 29 km/h
Cumul de pluie sur 24H : 1.2 mm

Romilly-sur-Aigre est une commune du département Eure-et-Loir (28).
La station météorologique du réseau de l'association la plus proche de Romilly-sur-Aigre est celle de Mainvilliers
Site du propriétaire de la station : http://www.sohade.fr



Icône Facebook Association Météo Centre Icône Twitter Association Météo Centre Icône Chaîne Youtube Association Météo Centre Icône contact Association Météo Centre Icône Insta Association Météo Centre